Amonate, Virginia
Current Conditions -  °F | °C
As of 8:35 PM on Friday 24 Oct 2014 (Local Time) from KJFZ Reporting Station
Clear Clear  
Wind Chill: 53°   Ceiling: Unl
Heat Index: 53°   Visibility: 10mi
Dew Point: 40°   Wind: 3mph
Humidity: 61%   Direction: 290°WNW
Pressure: 30.08"   Gusts: NA
Location:  37.19°N, 81.64°W
Report Text: KJFZ 250035Z AUTO 29003KT 10SM CLR 12/04 A3008 RMK AO2 T01150042
Loading
Personal Weather Stations






























Interactive Weather Map New forecast layout! Learn more

10-Day Weather Forecast

Advertisements
Track Severe Weather on mobile